sensor_id;sensor_type;location;lat;lon;timestamp;P1;durP1;ratioP1;P2;durP2;ratioP2
13571;SDS011;6857;53.484;10.216;2023-05-07T00:01:14;14.50;;;10.67;;
13571;SDS011;6857;53.484;10.216;2023-05-07T00:03:40;12.67;;;10.23;;
13571;SDS011;6857;53.484;10.216;2023-05-07T00:06:06;13.10;;;10.93;;
13571;SDS011;6857;53.484;10.216;2023-05-07T00:08:32;13.40;;;10.90;;
13571;SDS011;6857;53.484;10.216;2023-05-07T00:10:58;13.10;;;10.20;;
13571;SDS011;6857;53.484;10.216;2023-05-07T00:13:24;12.77;;;10.60;;
13571;SDS011;6857;53.484;10.216;2023-05-07T00:15:50;14.70;;;11.07;;
13571;SDS011;6857;53.484;10.216;2023-05-07T00:18:16;13.13;;;10.97;;
13571;SDS011;6857;53.484;10.216;2023-05-07T00:20:45;12.43;;;10.30;;
13571;SDS011;6857;53.484;10.216;2023-05-07T00:23:11;12.67;;;11.17;;
13571;SDS011;6857;53.484;10.216;2023-05-07T00:25:37;12.47;;;10.07;;
13571;SDS011;6857;53.484;10.216;2023-05-07T00:28:03;12.37;;;10.17;;
13571;SDS011;6857;53.484;10.216;2023-05-07T00:30:29;14.10;;;10.97;;
13571;SDS011;6857;53.484;10.216;2023-05-07T00:32:55;12.93;;;10.97;;
13571;SDS011;6857;53.484;10.216;2023-05-07T00:35:21;12.27;;;10.10;;
13571;SDS011;6857;53.484;10.216;2023-05-07T00:37:47;12.33;;;10.70;;
13571;SDS011;6857;53.484;10.216;2023-05-07T00:40:14;12.87;;;11.00;;
13571;SDS011;6857;53.484;10.216;2023-05-07T00:42:39;12.27;;;10.47;;
13571;SDS011;6857;53.484;10.216;2023-05-07T00:45:06;14.67;;;10.83;;
13571;SDS011;6857;53.484;10.216;2023-05-07T00:47:32;11.23;;;10.03;;
13571;SDS011;6857;53.484;10.216;2023-05-07T00:49:58;15.53;;;11.00;;
13571;SDS011;6857;53.484;10.216;2023-05-07T00:52:25;11.53;;;9.37;;
13571;SDS011;6857;53.484;10.216;2023-05-07T00:54:51;9.97;;;8.93;;
13571;SDS011;6857;53.484;10.216;2023-05-07T00:57:17;9.47;;;7.97;;
13571;SDS011;6857;53.484;10.216;2023-05-07T00:59:43;9.07;;;7.80;;
13571;SDS011;6857;53.484;10.216;2023-05-07T01:02:09;9.30;;;7.33;;
13571;SDS011;6857;53.484;10.216;2023-05-07T01:04:36;8.43;;;7.57;;
13571;SDS011;6857;53.484;10.216;2023-05-07T01:07:02;10.20;;;8.90;;
13571;SDS011;6857;53.484;10.216;2023-05-07T01:09:28;10.47;;;9.23;;
13571;SDS011;6857;53.484;10.216;2023-05-07T01:11:54;10.10;;;8.97;;
13571;SDS011;6857;53.484;10.216;2023-05-07T01:14:22;10.37;;;8.80;;
13571;SDS011;6857;53.484;10.216;2023-05-07T01:16:48;11.27;;;8.83;;
13571;SDS011;6857;53.484;10.216;2023-05-07T01:19:16;10.50;;;8.53;;
13571;SDS011;6857;53.484;10.216;2023-05-07T01:21:44;8.77;;;7.77;;
13571;SDS011;6857;53.484;10.216;2023-05-07T01:24:12;9.47;;;8.47;;
13571;SDS011;6857;53.484;10.216;2023-05-07T01:26:39;11.40;;;8.93;;
13571;SDS011;6857;53.484;10.216;2023-05-07T01:29:05;10.63;;;8.40;;
13571;SDS011;6857;53.484;10.216;2023-05-07T01:31:32;9.23;;;8.30;;
13571;SDS011;6857;53.484;10.216;2023-05-07T01:34:00;9.47;;;8.30;;
13571;SDS011;6857;53.484;10.216;2023-05-07T01:36:27;10.67;;;8.70;;
13571;SDS011;6857;53.484;10.216;2023-05-07T01:38:55;10.83;;;8.20;;
13571;SDS011;6857;53.484;10.216;2023-05-07T01:41:22;9.47;;;8.43;;
13571;SDS011;6857;53.484;10.216;2023-05-07T01:43:49;8.80;;;7.90;;
13571;SDS011;6857;53.484;10.216;2023-05-07T01:46:15;10.10;;;8.17;;
13571;SDS011;6857;53.484;10.216;2023-05-07T01:48:42;10.67;;;8.70;;
13571;SDS011;6857;53.484;10.216;2023-05-07T01:51:10;9.53;;;7.90;;
13571;SDS011;6857;53.484;10.216;2023-05-07T01:53:37;9.30;;;8.10;;
13571;SDS011;6857;53.484;10.216;2023-05-07T01:56:03;10.17;;;8.57;;
13571;SDS011;6857;53.484;10.216;2023-05-07T01:58:29;9.80;;;8.43;;
13571;SDS011;6857;53.484;10.216;2023-05-07T02:00:55;10.10;;;7.97;;
13571;SDS011;6857;53.484;10.216;2023-05-07T02:03:21;9.33;;;7.87;;
13571;SDS011;6857;53.484;10.216;2023-05-07T02:05:47;10.17;;;8.37;;
13571;SDS011;6857;53.484;10.216;2023-05-07T02:08:13;10.83;;;8.17;;
13571;SDS011;6857;53.484;10.216;2023-05-07T02:10:39;11.07;;;7.93;;
13571;SDS011;6857;53.484;10.216;2023-05-07T02:13:05;10.83;;;8.53;;
13571;SDS011;6857;53.484;10.216;2023-05-07T02:15:31;10.90;;;8.77;;
13571;SDS011;6857;53.484;10.216;2023-05-07T02:17:57;10.33;;;8.27;;
13571;SDS011;6857;53.484;10.216;2023-05-07T02:20:24;11.50;;;8.67;;
13571;SDS011;6857;53.484;10.216;2023-05-07T02:22:50;10.70;;;7.67;;
13571;SDS011;6857;53.484;10.216;2023-05-07T02:25:15;10.13;;;7.93;;
13571;SDS011;6857;53.484;10.216;2023-05-07T02:27:41;10.77;;;8.33;;
13571;SDS011;6857;53.484;10.216;2023-05-07T02:30:07;12.10;;;8.43;;
13571;SDS011;6857;53.484;10.216;2023-05-07T02:32:33;10.87;;;8.13;;
13571;SDS011;6857;53.484;10.216;2023-05-07T02:34:59;9.47;;;7.80;;
13571;SDS011;6857;53.484;10.216;2023-05-07T02:37:26;9.63;;;7.93;;
13571;SDS011;6857;53.484;10.216;2023-05-07T02:39:52;11.00;;;8.50;;
13571;SDS011;6857;53.484;10.216;2023-05-07T02:42:17;10.80;;;8.47;;
13571;SDS011;6857;53.484;10.216;2023-05-07T02:44:43;13.17;;;10.03;;
13571;SDS011;6857;53.484;10.216;2023-05-07T02:47:09;13.47;;;9.43;;
13571;SDS011;6857;53.484;10.216;2023-05-07T02:49:37;14.03;;;9.23;;
13571;SDS011;6857;53.484;10.216;2023-05-07T02:52:04;12.77;;;9.03;;
13571;SDS011;6857;53.484;10.216;2023-05-07T02:54:30;12.17;;;9.33;;
13571;SDS011;6857;53.484;10.216;2023-05-07T02:56:56;12.37;;;9.50;;
13571;SDS011;6857;53.484;10.216;2023-05-07T02:59:22;12.10;;;9.70;;
13571;SDS011;6857;53.484;10.216;2023-05-07T03:01:48;12.70;;;8.93;;
13571;SDS011;6857;53.484;10.216;2023-05-07T03:04:14;12.83;;;9.30;;
13571;SDS011;6857;53.484;10.216;2023-05-07T03:06:40;12.07;;;10.03;;
13571;SDS011;6857;53.484;10.216;2023-05-07T03:09:06;11.93;;;9.93;;
13571;SDS011;6857;53.484;10.216;2023-05-07T03:11:32;10.93;;;9.10;;
13571;SDS011;6857;53.484;10.216;2023-05-07T03:13:58;12.47;;;9.83;;
13571;SDS011;6857;53.484;10.216;2023-05-07T03:16:24;11.77;;;9.67;;
13571;SDS011;6857;53.484;10.216;2023-05-07T03:18:52;12.53;;;9.23;;
13571;SDS011;6857;53.484;10.216;2023-05-07T03:21:18;11.47;;;9.20;;
13571;SDS011;6857;53.484;10.216;2023-05-07T03:23:44;11.13;;;9.10;;
13571;SDS011;6857;53.484;10.216;2023-05-07T03:26:10;9.73;;;8.23;;
13571;SDS011;6857;53.484;10.216;2023-05-07T03:28:36;10.30;;;8.63;;
13571;SDS011;6857;53.484;10.216;2023-05-07T03:31:02;9.37;;;8.10;;
13571;SDS011;6857;53.484;10.216;2023-05-07T03:33:28;9.27;;;8.20;;
13571;SDS011;6857;53.484;10.216;2023-05-07T03:35:55;9.00;;;7.97;;
13571;SDS011;6857;53.484;10.216;2023-05-07T03:38:21;10.03;;;8.43;;
13571;SDS011;6857;53.484;10.216;2023-05-07T03:40:47;9.77;;;8.03;;
13571;SDS011;6857;53.484;10.216;2023-05-07T03:43:13;10.60;;;7.93;;
13571;SDS011;6857;53.484;10.216;2023-05-07T03:45:39;10.20;;;8.40;;
13571;SDS011;6857;53.484;10.216;2023-05-07T03:48:05;11.00;;;9.13;;
13571;SDS011;6857;53.484;10.216;2023-05-07T03:50:31;9.63;;;8.10;;
13571;SDS011;6857;53.484;10.216;2023-05-07T03:52:57;11.10;;;8.63;;
13571;SDS011;6857;53.484;10.216;2023-05-07T03:55:23;9.00;;;7.83;;
13571;SDS011;6857;53.484;10.216;2023-05-07T03:57:49;10.57;;;8.77;;
13571;SDS011;6857;53.484;10.216;2023-05-07T04:00:15;9.33;;;8.33;;
13571;SDS011;6857;53.484;10.216;2023-05-07T04:02:41;12.77;;;8.50;;
13571;SDS011;6857;53.484;10.216;2023-05-07T04:05:08;11.27;;;9.10;;
13571;SDS011;6857;53.484;10.216;2023-05-07T04:07:35;9.83;;;7.97;;
13571;SDS011;6857;53.484;10.216;2023-05-07T04:10:02;11.37;;;8.43;;
13571;SDS011;6857;53.484;10.216;2023-05-07T04:12:28;11.47;;;8.17;;
13571;SDS011;6857;53.484;10.216;2023-05-07T04:14:54;10.80;;;8.23;;
13571;SDS011;6857;53.484;10.216;2023-05-07T04:17:20;11.40;;;8.23;;
13571;SDS011;6857;53.484;10.216;2023-05-07T04:19:46;9.70;;;8.07;;
13571;SDS011;6857;53.484;10.216;2023-05-07T04:22:12;10.10;;;7.87;;
13571;SDS011;6857;53.484;10.216;2023-05-07T04:24:38;10.70;;;7.90;;
13571;SDS011;6857;53.484;10.216;2023-05-07T04:27:05;8.97;;;7.83;;
13571;SDS011;6857;53.484;10.216;2023-05-07T04:29:31;8.67;;;7.53;;
13571;SDS011;6857;53.484;10.216;2023-05-07T04:31:57;9.23;;;8.07;;
13571;SDS011;6857;53.484;10.216;2023-05-07T04:34:24;9.90;;;7.43;;
13571;SDS011;6857;53.484;10.216;2023-05-07T04:36:49;9.77;;;7.90;;
13571;SDS011;6857;53.484;10.216;2023-05-07T04:39:15;8.50;;;7.17;;
13571;SDS011;6857;53.484;10.216;2023-05-07T04:41:41;9.30;;;7.73;;
13571;SDS011;6857;53.484;10.216;2023-05-07T04:44:07;9.30;;;7.63;;
13571;SDS011;6857;53.484;10.216;2023-05-07T04:46:34;9.07;;;7.47;;
13571;SDS011;6857;53.484;10.216;2023-05-07T04:49:01;9.20;;;7.87;;
13571;SDS011;6857;53.484;10.216;2023-05-07T04:51:28;9.67;;;7.90;;
13571;SDS011;6857;53.484;10.216;2023-05-07T04:53:57;10.13;;;8.23;;
13571;SDS011;6857;53.484;10.216;2023-05-07T04:56:27;8.70;;;7.50;;
13571;SDS011;6857;53.484;10.216;2023-05-07T04:58:54;10.60;;;8.07;;
13571;SDS011;6857;53.484;10.216;2023-05-07T05:01:21;10.10;;;7.93;;
13571;SDS011;6857;53.484;10.216;2023-05-07T05:03:47;10.27;;;7.60;;
13571;SDS011;6857;53.484;10.216;2023-05-07T05:06:13;11.03;;;8.03;;
13571;SDS011;6857;53.484;10.216;2023-05-07T05:08:39;9.73;;;8.13;;
13571;SDS011;6857;53.484;10.216;2023-05-07T05:11:05;9.60;;;8.33;;
13571;SDS011;6857;53.484;10.216;2023-05-07T05:13:31;10.17;;;7.73;;
13571;SDS011;6857;53.484;10.216;2023-05-07T05:15:57;9.57;;;7.77;;
13571;SDS011;6857;53.484;10.216;2023-05-07T05:18:23;8.67;;;7.60;;
13571;SDS011;6857;53.484;10.216;2023-05-07T05:20:50;9.10;;;7.70;;
13571;SDS011;6857;53.484;10.216;2023-05-07T05:23:16;8.87;;;7.70;;
13571;SDS011;6857;53.484;10.216;2023-05-07T05:25:42;8.73;;;7.77;;
13571;SDS011;6857;53.484;10.216;2023-05-07T05:28:08;8.80;;;7.90;;
13571;SDS011;6857;53.484;10.216;2023-05-07T05:30:34;9.60;;;7.83;;
13571;SDS011;6857;53.484;10.216;2023-05-07T05:33:01;9.57;;;7.80;;
13571;SDS011;6857;53.484;10.216;2023-05-07T05:35:27;10.83;;;8.30;;
13571;SDS011;6857;53.484;10.216;2023-05-07T05:37:53;11.23;;;8.20;;
13571;SDS011;6857;53.484;10.216;2023-05-07T05:40:20;9.70;;;7.93;;
13571;SDS011;6857;53.484;10.216;2023-05-07T05:42:47;10.10;;;8.40;;
13571;SDS011;6857;53.484;10.216;2023-05-07T05:45:13;9.27;;;8.20;;
13571;SDS011;6857;53.484;10.216;2023-05-07T05:47:40;10.00;;;8.53;;
13571;SDS011;6857;53.484;10.216;2023-05-07T05:50:07;9.63;;;8.50;;
13571;SDS011;6857;53.484;10.216;2023-05-07T05:52:34;11.07;;;7.70;;
13571;SDS011;6857;53.484;10.216;2023-05-07T05:55:01;9.13;;;7.67;;
13571;SDS011;6857;53.484;10.216;2023-05-07T05:57:28;9.03;;;7.60;;
13571;SDS011;6857;53.484;10.216;2023-05-07T05:59:57;9.33;;;8.13;;
13571;SDS011;6857;53.484;10.216;2023-05-07T06:02:26;10.73;;;7.83;;
13571;SDS011;6857;53.484;10.216;2023-05-07T06:04:54;10.67;;;8.30;;
13571;SDS011;6857;53.484;10.216;2023-05-07T06:07:23;9.20;;;7.47;;
13571;SDS011;6857;53.484;10.216;2023-05-07T06:09:52;10.87;;;8.10;;
13571;SDS011;6857;53.484;10.216;2023-05-07T06:12:20;9.33;;;7.93;;
13571;SDS011;6857;53.484;10.216;2023-05-07T06:14:46;9.03;;;7.67;;
13571;SDS011;6857;53.484;10.216;2023-05-07T06:17:12;10.80;;;8.60;;
13571;SDS011;6857;53.484;10.216;2023-05-07T06:19:38;9.40;;;7.97;;
13571;SDS011;6857;53.484;10.216;2023-05-07T06:22:05;8.37;;;7.47;;
13571;SDS011;6857;53.484;10.216;2023-05-07T06:24:33;9.33;;;7.60;;
13571;SDS011;6857;53.484;10.216;2023-05-07T06:27:02;8.93;;;7.13;;
13571;SDS011;6857;53.484;10.216;2023-05-07T06:29:30;8.80;;;7.40;;
13571;SDS011;6857;53.484;10.216;2023-05-07T06:32:08;7.60;;;6.80;;
13571;SDS011;6857;53.484;10.216;2023-05-07T06:34:34;8.00;;;6.60;;
13571;SDS011;6857;53.484;10.216;2023-05-07T06:36:59;9.10;;;6.70;;
13571;SDS011;6857;53.484;10.216;2023-05-07T06:39:27;7.60;;;6.80;;
13571;SDS011;6857;53.484;10.216;2023-05-07T06:41:54;8.47;;;7.23;;
13571;SDS011;6857;53.484;10.216;2023-05-07T06:44:21;8.97;;;6.53;;
13571;SDS011;6857;53.484;10.216;2023-05-07T06:46:48;9.13;;;7.47;;
13571;SDS011;6857;53.484;10.216;2023-05-07T06:49:14;9.20;;;6.97;;
13571;SDS011;6857;53.484;10.216;2023-05-07T06:51:40;8.03;;;7.00;;
13571;SDS011;6857;53.484;10.216;2023-05-07T06:54:08;9.30;;;6.93;;
13571;SDS011;6857;53.484;10.216;2023-05-07T06:56:34;8.73;;;7.03;;
13571;SDS011;6857;53.484;10.216;2023-05-07T06:59:02;7.90;;;7.10;;
13571;SDS011;6857;53.484;10.216;2023-05-07T07:01:30;7.87;;;6.90;;
13571;SDS011;6857;53.484;10.216;2023-05-07T07:03:57;7.70;;;6.53;;
13571;SDS011;6857;53.484;10.216;2023-05-07T07:06:25;9.30;;;6.13;;
13571;SDS011;6857;53.484;10.216;2023-05-07T07:08:51;7.00;;;5.33;;
13571;SDS011;6857;53.484;10.216;2023-05-07T07:11:18;6.90;;;6.07;;
13571;SDS011;6857;53.484;10.216;2023-05-07T07:13:45;8.30;;;6.10;;
13571;SDS011;6857;53.484;10.216;2023-05-07T07:16:12;7.30;;;6.20;;
13571;SDS011;6857;53.484;10.216;2023-05-07T07:18:38;6.97;;;5.87;;
13571;SDS011;6857;53.484;10.216;2023-05-07T07:21:05;7.53;;;6.50;;
13571;SDS011;6857;53.484;10.216;2023-05-07T07:23:31;7.53;;;6.30;;
13571;SDS011;6857;53.484;10.216;2023-05-07T07:25:57;8.00;;;6.13;;
13571;SDS011;6857;53.484;10.216;2023-05-07T07:28:24;7.10;;;6.30;;
13571;SDS011;6857;53.484;10.216;2023-05-07T07:30:50;7.27;;;6.10;;
13571;SDS011;6857;53.484;10.216;2023-05-07T07:33:17;8.77;;;6.20;;
13571;SDS011;6857;53.484;10.216;2023-05-07T07:35:43;7.13;;;6.20;;
13571;SDS011;6857;53.484;10.216;2023-05-07T07:38:09;6.90;;;6.17;;
13571;SDS011;6857;53.484;10.216;2023-05-07T07:40:36;8.37;;;5.77;;
13571;SDS011;6857;53.484;10.216;2023-05-07T07:43:02;7.77;;;6.30;;
13571;SDS011;6857;53.484;10.216;2023-05-07T07:45:29;8.00;;;6.33;;
13571;SDS011;6857;53.484;10.216;2023-05-07T07:47:56;7.40;;;5.47;;
13571;SDS011;6857;53.484;10.216;2023-05-07T07:50:23;6.63;;;5.77;;
13571;SDS011;6857;53.484;10.216;2023-05-07T07:52:49;8.10;;;6.07;;
13571;SDS011;6857;53.484;10.216;2023-05-07T07:55:15;7.20;;;5.70;;
13571;SDS011;6857;53.484;10.216;2023-05-07T07:57:46;7.40;;;6.57;;
13571;SDS011;6857;53.484;10.216;2023-05-07T08:00:12;9.80;;;6.83;;
13571;SDS011;6857;53.484;10.216;2023-05-07T08:02:39;9.53;;;6.43;;
13571;SDS011;6857;53.484;10.216;2023-05-07T08:05:06;8.33;;;6.27;;
13571;SDS011;6857;53.484;10.216;2023-05-07T08:07:32;8.67;;;7.00;;
13571;SDS011;6857;53.484;10.216;2023-05-07T08:09:59;10.87;;;6.87;;
13571;SDS011;6857;53.484;10.216;2023-05-07T08:12:26;6.77;;;6.07;;
13571;SDS011;6857;53.484;10.216;2023-05-07T08:14:53;8.10;;;7.30;;
13571;SDS011;6857;53.484;10.216;2023-05-07T08:17:19;9.73;;;7.23;;
13571;SDS011;6857;53.484;10.216;2023-05-07T08:19:47;9.03;;;7.50;;
13571;SDS011;6857;53.484;10.216;2023-05-07T08:22:14;11.33;;;8.03;;
13571;SDS011;6857;53.484;10.216;2023-05-07T08:24:42;8.63;;;6.37;;
13571;SDS011;6857;53.484;10.216;2023-05-07T08:27:09;7.93;;;6.60;;
13571;SDS011;6857;53.484;10.216;2023-05-07T08:29:36;8.57;;;7.07;;
13571;SDS011;6857;53.484;10.216;2023-05-07T08:32:03;8.43;;;6.57;;
13571;SDS011;6857;53.484;10.216;2023-05-07T08:34:30;10.87;;;7.30;;
13571;SDS011;6857;53.484;10.216;2023-05-07T08:36:57;7.43;;;6.63;;
13571;SDS011;6857;53.484;10.216;2023-05-07T08:39:23;7.50;;;6.67;;
13571;SDS011;6857;53.484;10.216;2023-05-07T08:41:50;7.80;;;6.90;;
13571;SDS011;6857;53.484;10.216;2023-05-07T08:44:22;7.87;;;6.13;;
13571;SDS011;6857;53.484;10.216;2023-05-07T08:46:49;8.47;;;6.10;;
13571;SDS011;6857;53.484;10.216;2023-05-07T08:49:19;8.20;;;6.60;;
13571;SDS011;6857;53.484;10.216;2023-05-07T08:51:46;6.40;;;5.80;;
13571;SDS011;6857;53.484;10.216;2023-05-07T08:54:15;6.50;;;5.90;;
13571;SDS011;6857;53.484;10.216;2023-05-07T08:56:42;6.83;;;6.13;;
13571;SDS011;6857;53.484;10.216;2023-05-07T08:59:09;6.47;;;5.77;;
13571;SDS011;6857;53.484;10.216;2023-05-07T09:01:36;6.90;;;5.90;;
13571;SDS011;6857;53.484;10.216;2023-05-07T09:04:03;6.50;;;5.90;;
13571;SDS011;6857;53.484;10.216;2023-05-07T09:06:31;6.23;;;5.63;;
13571;SDS011;6857;53.484;10.216;2023-05-07T09:08:58;6.50;;;5.80;;
13571;SDS011;6857;53.484;10.216;2023-05-07T09:11:26;6.90;;;5.60;;
13571;SDS011;6857;53.484;10.216;2023-05-07T09:13:56;6.43;;;5.37;;
13571;SDS011;6857;53.484;10.216;2023-05-07T09:16:26;7.30;;;5.90;;
13571;SDS011;6857;53.484;10.216;2023-05-07T09:18:54;6.63;;;5.50;;
13571;SDS011;6857;53.484;10.216;2023-05-07T09:21:21;6.10;;;5.30;;
13571;SDS011;6857;53.484;10.216;2023-05-07T09:23:49;7.60;;;5.80;;
13571;SDS011;6857;53.484;10.216;2023-05-07T09:26:16;6.73;;;5.40;;
13571;SDS011;6857;53.484;10.216;2023-05-07T09:28:43;7.73;;;5.60;;
13571;SDS011;6857;53.484;10.216;2023-05-07T09:31:11;7.30;;;6.00;;
13571;SDS011;6857;53.484;10.216;2023-05-07T09:33:38;7.17;;;5.83;;
13571;SDS011;6857;53.484;10.216;2023-05-07T09:36:06;7.47;;;5.87;;
13571;SDS011;6857;53.484;10.216;2023-05-07T09:38:34;6.30;;;5.63;;
13571;SDS011;6857;53.484;10.216;2023-05-07T09:41:08;6.90;;;5.73;;
13571;SDS011;6857;53.484;10.216;2023-05-07T09:43:36;8.07;;;6.30;;
13571;SDS011;6857;53.484;10.216;2023-05-07T09:46:11;7.00;;;6.20;;
13571;SDS011;6857;53.484;10.216;2023-05-07T09:48:41;7.97;;;6.77;;
13571;SDS011;6857;53.484;10.216;2023-05-07T09:53:46;6.67;;;5.97;;
13571;SDS011;6857;53.484;10.216;2023-05-07T09:56:14;7.40;;;6.03;;
13571;SDS011;6857;53.484;10.216;2023-05-07T09:58:42;6.80;;;6.10;;
13571;SDS011;6857;53.484;10.216;2023-05-07T10:01:10;7.17;;;5.60;;
13571;SDS011;6857;53.484;10.216;2023-05-07T10:03:40;6.13;;;5.53;;
13571;SDS011;6857;53.484;10.216;2023-05-07T10:06:10;7.13;;;5.80;;
13571;SDS011;6857;53.484;10.216;2023-05-07T10:08:39;6.03;;;5.43;;
13571;SDS011;6857;53.484;10.216;2023-05-07T10:11:07;6.30;;;5.70;;
13571;SDS011;6857;53.484;10.216;2023-05-07T10:13:37;6.20;;;5.50;;
13571;SDS011;6857;53.484;10.216;2023-05-07T10:16:05;5.97;;;5.37;;
13571;SDS011;6857;53.484;10.216;2023-05-07T10:18:34;7.20;;;5.77;;
13571;SDS011;6857;53.484;10.216;2023-05-07T10:21:04;7.10;;;5.77;;
13571;SDS011;6857;53.484;10.216;2023-05-07T10:23:33;7.23;;;5.23;;
13571;SDS011;6857;53.484;10.216;2023-05-07T10:26:02;5.83;;;5.20;;
13571;SDS011;6857;53.484;10.216;2023-05-07T10:28:30;5.57;;;5.07;;
13571;SDS011;6857;53.484;10.216;2023-05-07T10:33:47;7.07;;;4.77;;
13571;SDS011;6857;53.484;10.216;2023-05-07T10:36:16;5.03;;;4.53;;
13571;SDS011;6857;53.484;10.216;2023-05-07T10:38:44;6.20;;;4.73;;
13571;SDS011;6857;53.484;10.216;2023-05-07T10:41:12;5.83;;;4.40;;
13571;SDS011;6857;53.484;10.216;2023-05-07T10:43:42;5.93;;;4.67;;
13571;SDS011;6857;53.484;10.216;2023-05-07T10:46:13;5.83;;;4.80;;
13571;SDS011;6857;53.484;10.216;2023-05-07T10:51:34;8.00;;;4.60;;
13571;SDS011;6857;53.484;10.216;2023-05-07T10:56:40;5.27;;;4.27;;
13571;SDS011;6857;53.484;10.216;2023-05-07T11:01:50;5.20;;;4.60;;
13571;SDS011;6857;53.484;10.216;2023-05-07T11:04:18;6.93;;;4.93;;
13571;SDS011;6857;53.484;10.216;2023-05-07T11:07:09;6.83;;;5.30;;
13571;SDS011;6857;53.484;10.216;2023-05-07T11:09:55;5.00;;;4.50;;
13571;SDS011;6857;53.484;10.216;2023-05-07T11:17:55;5.53;;;4.50;;
13571;SDS011;6857;53.484;10.216;2023-05-07T11:23:12;4.83;;;4.37;;
13571;SDS011;6857;53.484;10.216;2023-05-07T11:26:14;7.47;;;5.33;;
13571;SDS011;6857;53.484;10.216;2023-05-07T11:28:42;4.40;;;3.97;;
13571;SDS011;6857;53.484;10.216;2023-05-07T11:31:10;5.87;;;3.93;;
13571;SDS011;6857;53.484;10.216;2023-05-07T11:33:37;4.90;;;4.40;;
13571;SDS011;6857;53.484;10.216;2023-05-07T11:36:05;4.60;;;4.20;;
13571;SDS011;6857;53.484;10.216;2023-05-07T11:38:35;4.10;;;3.70;;
13571;SDS011;6857;53.484;10.216;2023-05-07T11:41:03;3.73;;;3.43;;
13571;SDS011;6857;53.484;10.216;2023-05-07T11:43:33;4.70;;;4.00;;
13571;SDS011;6857;53.484;10.216;2023-05-07T11:46:10;4.47;;;3.60;;
13571;SDS011;6857;53.484;10.216;2023-05-07T11:48:39;3.53;;;3.20;;
13571;SDS011;6857;53.484;10.216;2023-05-07T11:51:07;4.57;;;3.87;;
13571;SDS011;6857;53.484;10.216;2023-05-07T11:53:39;3.60;;;2.93;;
13571;SDS011;6857;53.484;10.216;2023-05-07T11:56:07;3.20;;;2.90;;
13571;SDS011;6857;53.484;10.216;2023-05-07T11:58:34;3.63;;;3.30;;
13571;SDS011;6857;53.484;10.216;2023-05-07T12:01:02;3.30;;;3.00;;
13571;SDS011;6857;53.484;10.216;2023-05-07T12:03:29;4.97;;;4.17;;
13571;SDS011;6857;53.484;10.216;2023-05-07T12:05:56;10.10;;;8.33;;
13571;SDS011;6857;53.484;10.216;2023-05-07T12:08:23;8.90;;;6.97;;
13571;SDS011;6857;53.484;10.216;2023-05-07T12:10:50;5.10;;;3.73;;
13571;SDS011;6857;53.484;10.216;2023-05-07T12:13:18;2.87;;;2.57;;
13571;SDS011;6857;53.484;10.216;2023-05-07T12:15:45;4.20;;;3.80;;
13571;SDS011;6857;53.484;10.216;2023-05-07T12:18:12;5.27;;;4.77;;
13571;SDS011;6857;53.484;10.216;2023-05-07T12:20:39;5.00;;;4.20;;
13571;SDS011;6857;53.484;10.216;2023-05-07T12:23:07;3.50;;;3.20;;
13571;SDS011;6857;53.484;10.216;2023-05-07T12:25:36;3.40;;;2.70;;
13571;SDS011;6857;53.484;10.216;2023-05-07T12:28:03;3.33;;;2.70;;
13571;SDS011;6857;53.484;10.216;2023-05-07T12:30:31;5.20;;;3.07;;
13571;SDS011;6857;53.484;10.216;2023-05-07T12:32:58;3.23;;;2.93;;
13571;SDS011;6857;53.484;10.216;2023-05-07T12:35:26;2.60;;;2.40;;
13571;SDS011;6857;53.484;10.216;2023-05-07T12:37:56;3.07;;;2.77;;
13571;SDS011;6857;53.484;10.216;2023-05-07T12:40:25;3.57;;;2.80;;
13571;SDS011;6857;53.484;10.216;2023-05-07T12:42:54;3.87;;;2.90;;
13571;SDS011;6857;53.484;10.216;2023-05-07T12:45:21;2.87;;;2.67;;
13571;SDS011;6857;53.484;10.216;2023-05-07T12:47:48;3.20;;;2.90;;
13571;SDS011;6857;53.484;10.216;2023-05-07T12:50:16;3.13;;;2.83;;
13571;SDS011;6857;53.484;10.216;2023-05-07T12:52:49;3.03;;;2.77;;
13571;SDS011;6857;53.484;10.216;2023-05-07T12:55:16;3.50;;;2.70;;
13571;SDS011;6857;53.484;10.216;2023-05-07T12:57:47;5.17;;;2.90;;
13571;SDS011;6857;53.484;10.216;2023-05-07T13:00:16;4.97;;;3.00;;
13571;SDS011;6857;53.484;10.216;2023-05-07T13:02:43;8.17;;;4.80;;
13571;SDS011;6857;53.484;10.216;2023-05-07T13:05:11;4.60;;;3.07;;
13571;SDS011;6857;53.484;10.216;2023-05-07T13:07:38;3.37;;;2.83;;
13571;SDS011;6857;53.484;10.216;2023-05-07T13:10:05;3.10;;;2.80;;
13571;SDS011;6857;53.484;10.216;2023-05-07T13:12:33;4.23;;;3.00;;
13571;SDS011;6857;53.484;10.216;2023-05-07T13:15:00;5.03;;;3.10;;
13571;SDS011;6857;53.484;10.216;2023-05-07T13:17:26;3.20;;;2.90;;
13571;SDS011;6857;53.484;10.216;2023-05-07T13:19:55;5.03;;;2.90;;
13571;SDS011;6857;53.484;10.216;2023-05-07T13:22:22;4.00;;;3.00;;
13571;SDS011;6857;53.484;10.216;2023-05-07T13:24:49;3.10;;;2.43;;
13571;SDS011;6857;53.484;10.216;2023-05-07T13:27:16;2.77;;;2.47;;
13571;SDS011;6857;53.484;10.216;2023-05-07T13:29:44;3.10;;;2.70;;
13571;SDS011;6857;53.484;10.216;2023-05-07T13:32:11;3.30;;;2.40;;
13571;SDS011;6857;53.484;10.216;2023-05-07T13:34:38;4.27;;;2.47;;
13571;SDS011;6857;53.484;10.216;2023-05-07T13:37:06;2.47;;;2.20;;
13571;SDS011;6857;53.484;10.216;2023-05-07T13:39:33;2.50;;;1.90;;
13571;SDS011;6857;53.484;10.216;2023-05-07T13:42:00;1.93;;;1.80;;
13571;SDS011;6857;53.484;10.216;2023-05-07T13:44:30;2.20;;;2.00;;
13571;SDS011;6857;53.484;10.216;2023-05-07T13:46:57;2.47;;;2.17;;
13571;SDS011;6857;53.484;10.216;2023-05-07T13:49:24;2.43;;;2.07;;
13571;SDS011;6857;53.484;10.216;2023-05-07T13:51:51;3.53;;;2.83;;
13571;SDS011;6857;53.484;10.216;2023-05-07T13:54:17;1.80;;;1.67;;
13571;SDS011;6857;53.484;10.216;2023-05-07T13:56:43;2.90;;;1.90;;
13571;SDS011;6857;53.484;10.216;2023-05-07T13:59:10;2.30;;;2.10;;
13571;SDS011;6857;53.484;10.216;2023-05-07T14:01:39;2.77;;;2.23;;
13571;SDS011;6857;53.484;10.216;2023-05-07T14:04:05;2.30;;;1.93;;
13571;SDS011;6857;53.484;10.216;2023-05-07T14:06:32;2.20;;;2.00;;
13571;SDS011;6857;53.484;10.216;2023-05-07T14:08:59;2.40;;;2.20;;
13571;SDS011;6857;53.484;10.216;2023-05-07T14:11:26;2.53;;;2.10;;
13571;SDS011;6857;53.484;10.216;2023-05-07T14:13:52;3.83;;;2.80;;
13571;SDS011;6857;53.484;10.216;2023-05-07T14:16:19;2.70;;;2.30;;
13571;SDS011;6857;53.484;10.216;2023-05-07T14:18:46;2.37;;;2.03;;
13571;SDS011;6857;53.484;10.216;2023-05-07T14:21:12;3.53;;;2.17;;
13571;SDS011;6857;53.484;10.216;2023-05-07T14:23:39;2.27;;;1.90;;
13571;SDS011;6857;53.484;10.216;2023-05-07T14:26:06;2.33;;;2.13;;
13571;SDS011;6857;53.484;10.216;2023-05-07T14:28:33;3.00;;;2.10;;
13571;SDS011;6857;53.484;10.216;2023-05-07T14:30:59;3.03;;;2.73;;
13571;SDS011;6857;53.484;10.216;2023-05-07T14:33:26;3.67;;;1.83;;
13571;SDS011;6857;53.484;10.216;2023-05-07T14:35:53;2.47;;;2.27;;
13571;SDS011;6857;53.484;10.216;2023-05-07T14:38:20;2.30;;;2.00;;
13571;SDS011;6857;53.484;10.216;2023-05-07T14:40:46;3.57;;;2.43;;
13571;SDS011;6857;53.484;10.216;2023-05-07T14:43:13;2.30;;;2.00;;
13571;SDS011;6857;53.484;10.216;2023-05-07T14:45:40;3.27;;;2.67;;
13571;SDS011;6857;53.484;10.216;2023-05-07T14:48:07;5.67;;;2.53;;
13571;SDS011;6857;53.484;10.216;2023-05-07T14:50:37;2.50;;;1.70;;
13571;SDS011;6857;53.484;10.216;2023-05-07T14:53:04;2.40;;;2.20;;
13571;SDS011;6857;53.484;10.216;2023-05-07T14:55:30;2.17;;;1.97;;
13571;SDS011;6857;53.484;10.216;2023-05-07T14:57:57;2.50;;;2.30;;
13571;SDS011;6857;53.484;10.216;2023-05-07T15:00:24;3.50;;;1.87;;
13571;SDS011;6857;53.484;10.216;2023-05-07T15:02:51;2.87;;;2.03;;
13571;SDS011;6857;53.484;10.216;2023-05-07T15:05:17;2.43;;;2.00;;